Time;durP1;ratioP1;P1;durP2;ratioP2;P2;SDS_P1;SDS_P2;PMS_P1;PMS_P2;Temp;Humidity;BMP_temperature;BMP_pressure;BME280_temperature;BME280_humidity;BME280_pressure;Samples;Min_cycle;Max_cycle;Signal;HPM_P1;HPM_P2
2022/12/27 00:00:13;;;;;;;6.47;4.00;;;8.80;69.40;;;;;;4738245;29;114674;-82
2022/12/27 00:02:41;;;;;;;6.35;4.18;;;8.80;69.40;;;;;;4738566;29;114443;-82
2022/12/27 00:05:09;;;;;;;6.25;4.20;;;8.70;69.40;;;;;;4736193;29;115144;-82
2022/12/27 00:07:36;;;;;;;6.32;4.20;;;8.70;69.30;;;;;;4722413;29;115401;-83
2022/12/27 00:10:05;;;;;;;5.25;3.95;;;8.80;69.40;;;;;;4738619;29;114364;-82
2022/12/27 00:12:32;;;;;;;6.30;4.20;;;8.80;69.30;;;;;;4722981;29;116410;-82
2022/12/27 00:14:59;;;;;;;10.48;7.22;;;8.80;69.40;;;;;;4736564;29;115071;-82
2022/12/27 00:17:26;;;;;;;8.18;4.40;;;8.80;69.40;;;;;;4738414;29;115036;-81
2022/12/27 00:19:54;;;;;;;5.55;3.88;;;8.80;69.30;;;;;;4738936;29;114602;-82
2022/12/27 00:22:29;;;;;;;6.00;4.05;;;8.70;69.30;;;;;;4737137;29;114711;-82
2022/12/27 00:24:57;;;;;;;5.90;3.80;;;8.70;69.30;;;;;;4750431;29;117023;-82
2022/12/27 00:27:24;;;;;;;8.20;3.88;;;8.70;69.40;;;;;;4738272;29;115111;-81
2022/12/27 00:29:51;;;;;;;6.45;4.57;;;8.70;69.30;;;;;;4737187;29;114811;-81
2022/12/27 00:32:18;;;;;;;6.28;4.03;;;8.80;69.30;;;;;;4737226;29;114488;-82
2022/12/27 00:34:45;;;;;;;6.28;4.00;;;8.70;69.30;;;;;;4721970;29;115135;-82
2022/12/27 00:37:13;;;;;;;5.38;3.30;;;8.70;69.40;;;;;;4721897;29;117795;-82
2022/12/27 00:39:42;;;;;;;5.40;4.03;;;8.80;69.40;;;;;;4738607;29;114446;-82
2022/12/27 00:42:12;;;;;;;6.03;3.85;;;8.70;69.60;;;;;;4752310;29;114585;-82
2022/12/27 00:44:39;;;;;;;6.10;4.00;;;8.70;69.60;;;;;;4751701;29;116342;-82
2022/12/27 00:47:06;;;;;;;4.93;3.35;;;8.70;69.70;;;;;;4722128;29;116707;-82
2022/12/27 00:49:33;;;;;;;5.78;3.80;;;8.70;69.70;;;;;;4752041;29;114573;-81
2022/12/27 00:52:01;;;;;;;7.90;4.13;;;8.70;69.70;;;;;;4738205;29;114588;-81
2022/12/27 00:54:28;;;;;;;6.35;3.90;;;8.70;69.70;;;;;;4737927;29;115245;-81
2022/12/27 00:56:56;;;;;;;5.40;3.55;;;8.70;69.80;;;;;;4751025;29;115819;-81
2022/12/27 00:59:24;;;;;;;5.95;3.60;;;8.70;69.80;;;;;;4738632;29;114238;-81
2022/12/27 01:01:51;;;;;;;4.72;3.22;;;8.70;69.80;;;;;;4738479;29;115304;-82
2022/12/27 01:04:18;;;;;;;5.88;3.50;;;8.70;69.70;;;;;;4749828;29;115083;-82
2022/12/27 01:06:45;;;;;;;5.13;3.67;;;8.70;69.70;;;;;;4736716;29;117640;-81
2022/12/27 01:09:12;;;;;;;4.82;3.05;;;8.70;69.80;;;;;;4738163;29;114474;-81
2022/12/27 01:11:40;;;;;;;4.85;3.03;;;8.70;69.80;;;;;;4734772;29;114696;-81
2022/12/27 01:14:08;;;;;;;6.53;3.38;;;8.70;69.80;;;;;;4734895;29;115327;-81
2022/12/27 01:16:36;;;;;;;4.75;2.97;;;8.70;69.80;;;;;;4750074;29;114739;-81
2022/12/27 01:19:03;;;;;;;4.55;3.13;;;8.60;69.90;;;;;;4738188;29;114731;-81
2022/12/27 01:21:31;;;;;;;4.35;2.70;;;8.60;69.80;;;;;;4738314;29;114439;-82
2022/12/27 01:23:58;;;;;;;5.18;2.85;;;8.60;69.80;;;;;;4749589;29;115229;-82
2022/12/27 01:26:25;;;;;;;5.03;2.90;;;8.60;69.70;;;;;;4749782;29;114821;-81
2022/12/27 01:28:53;;;;;;;4.45;2.90;;;8.60;69.80;;;;;;4735306;29;114637;-82
2022/12/27 01:31:23;;;;;;;4.68;2.72;;;8.60;69.80;;;;;;4705343;29;115877;-81
2022/12/27 01:33:58;;;;;;;4.03;2.58;;;8.60;69.80;;;;;;4749981;29;115095;-81
2022/12/27 01:36:27;;;;;;;3.08;2.17;;;8.70;69.80;;;;;;4736179;29;114944;-81
2022/12/27 01:38:56;;;;;;;3.83;2.33;;;8.60;69.80;;;;;;4736466;29;114475;-81
2022/12/27 01:44:42;;;;;;;3.60;2.28;;;8.60;69.80;;;;;;4747389;29;115330;-81
2022/12/27 01:47:30;;;;;;;3.92;2.35;;;8.60;69.80;;;;;;4736891;29;114840;-82
2022/12/27 01:50:09;;;;;;;3.55;2.40;;;8.60;69.80;;;;;;4736479;29;114634;-81
2022/12/27 01:52:45;;;;;;;5.15;3.38;;;8.50;69.90;;;;;;4737451;29;114806;-81
2022/12/27 01:55:24;;;;;;;4.35;2.78;;;8.50;69.90;;;;;;4736821;29;115577;-81
2022/12/27 01:57:53;;;;;;;3.20;1.98;;;8.50;70.00;;;;;;4732423;29;114944;-81
2022/12/27 02:00:23;;;;;;;4.45;2.50;;;8.50;70.10;;;;;;4748907;29;115948;-81
2022/12/27 02:02:50;;;;;;;3.85;2.30;;;8.50;70.10;;;;;;4751964;29;114424;-81
2022/12/27 02:05:18;;;;;;;3.80;2.17;;;8.50;70.10;;;;;;4720779;29;115297;-81
2022/12/27 02:08:04;;;;;;;3.90;2.50;;;8.50;70.10;;;;;;4732996;29;115228;-83
2022/12/27 02:10:31;;;;;;;4.53;2.30;;;8.50;70.20;;;;;;4722443;29;114474;-81
2022/12/27 02:12:59;;;;;;;4.10;2.00;;;8.50;70.10;;;;;;4736477;29;114639;-82
2022/12/27 02:15:27;;;;;;;3.40;1.90;;;8.50;70.00;;;;;;4735830;29;115471;-82
2022/12/27 02:17:54;;;;;;;3.85;2.10;;;8.50;69.90;;;;;;4735524;29;114684;-82
2022/12/27 02:20:24;;;;;;;3.17;1.95;;;8.50;69.90;;;;;;4736179;29;114840;-82
2022/12/27 02:26:28;;;;;;;3.95;2.33;;;8.40;69.90;;;;;;4736006;29;115434;-83
2022/12/27 02:29:42;;;;;;;4.20;2.55;;;8.40;70.10;;;;;;4750022;29;114762;-83
2022/12/27 02:32:25;;;;;;;4.20;2.60;;;8.40;70.00;;;;;;4725346;29;114978;-83
2022/12/27 02:35:12;;;;;;;3.78;2.50;;;8.30;70.10;;;;;;4736121;29;115004;-83
2022/12/27 02:37:50;;;;;;;5.13;2.65;;;8.30;70.10;;;;;;4734873;29;116420;-83
2022/12/27 02:55:08;;;;;;;7.28;3.65;;;8.00;70.50;;;;;;4735342;29;114575;-82
2022/12/27 02:57:49;;;;;;;4.97;3.42;;;8.00;70.70;;;;;;4736581;29;114402;-83
2022/12/27 03:03:46;;;;;;;5.85;3.78;;;7.90;70.90;;;;;;4745222;29;114978;-83
2022/12/27 03:06:38;;;;;;;4.80;3.42;;;7.80;70.80;;;;;;4735780;29;114456;-83
2022/12/27 03:15:54;;;;;;;4.35;3.15;;;7.70;71.10;;;;;;4732168;29;114763;-83
2022/12/27 03:18:47;;;;;;;5.57;3.40;;;7.70;71.20;;;;;;4705852;29;114485;-82
2022/12/27 03:27:27;;;;;;;6.32;3.50;;;7.70;71.00;;;;;;4734573;29;114821;-83
2022/12/27 03:33:30;;;;;;;5.57;3.83;;;7.70;71.20;;;;;;4723823;29;114331;-83
2022/12/27 03:39:16;;;;;;;4.95;3.25;;;7.70;71.00;;;;;;4736200;29;115442;-82
2022/12/27 03:44:53;;;;;;;4.78;3.10;;;7.70;70.80;;;;;;4736889;29;114499;-82
2022/12/27 03:47:44;;;;;;;4.00;2.47;;;7.70;70.80;;;;;;4720196;29;115025;-82
2022/12/27 03:50:30;;;;;;;4.28;2.70;;;7.70;70.70;;;;;;4721913;29;115116;-82
2022/12/27 03:53:10;;;;;;;4.95;2.70;;;7.60;70.60;;;;;;4734446;29;114678;-82
2022/12/27 03:55:38;;;;;;;4.53;2.75;;;7.60;70.60;;;;;;4708718;29;114433;-83
2022/12/27 03:58:05;;;;;;;4.18;2.60;;;7.60;70.70;;;;;;4722617;29;115149;-81
2022/12/27 04:00:32;;;;;;;4.03;2.65;;;7.50;70.70;;;;;;4752780;29;115112;-82
2022/12/27 04:02:59;;;;;;;4.00;2.53;;;7.50;70.60;;;;;;4738546;29;114531;-83
2022/12/27 04:05:26;;;;;;;4.20;2.42;;;7.60;70.60;;;;;;4753486;29;114585;-82
2022/12/27 04:35:37;;;;;;;4.65;2.28;;;7.20;70.90;;;;;;4749460;29;114656;-82
2022/12/27 04:38:04;;;;;;;3.40;2.00;;;7.20;70.90;;;;;;4739117;29;114565;-82
2022/12/27 04:57:07;;;;;;;7.00;1.55;;;6.20;69.90;;;;;;4738997;29;114431;-83
2022/12/27 05:02:20;;;;;;;2.80;1.40;;;5.80;70.40;;;;;;4736883;29;117356;-83
2022/12/27 05:04:48;;;;;;;3.22;1.58;;;5.70;70.80;;;;;;4737992;29;114716;-82
2022/12/27 05:15:35;;;;;;;4.40;1.70;;;5.30;71.10;;;;;;4736888;29;116641;-82
2022/12/27 05:18:03;;;;;;;2.80;1.55;;;5.20;71.20;;;;;;4733628;29;114943;-82
2022/12/27 05:20:32;;;;;;;3.10;1.13;;;5.20;71.20;;;;;;4737209;29;114349;-82
2022/12/27 05:25:46;;;;;;;3.45;1.42;;;5.10;71.50;;;;;;4737678;29;114642;-82
2022/12/27 05:28:13;;;;;;;4.32;1.70;;;5.10;71.60;;;;;;4750354;29;114631;-82
2022/12/27 05:30:41;;;;;;;2.83;1.50;;;5.10;71.60;;;;;;4736838;29;114914;-82
2022/12/27 05:33:08;;;;;;;4.25;1.85;;;5.00;72.00;;;;;;4736383;29;115267;-82
2022/12/27 05:35:36;;;;;;;3.45;1.73;;;5.10;72.20;;;;;;4736596;29;114629;-82
2022/12/27 05:38:04;;;;;;;4.88;2.13;;;5.10;72.40;;;;;;4750827;29;114695;-82
2022/12/27 05:40:31;;;;;;;3.83;1.90;;;5.10;72.20;;;;;;4722136;29;114567;-82
2022/12/27 05:43:02;;;;;;;3.08;1.73;;;5.00;72.00;;;;;;4747638;29;115179;-82
2022/12/27 05:45:29;;;;;;;5.70;2.20;;;5.00;71.70;;;;;;4733743;29;114714;-82
2022/12/27 05:47:59;;;;;;;4.72;1.98;;;5.00;71.60;;;;;;4736471;29;114449;-83
2022/12/27 05:50:27;;;;;;;4.85;2.17;;;4.90;71.70;;;;;;4737073;29;115314;-83
2022/12/27 05:53:09;;;;;;;5.93;2.10;;;4.90;71.50;;;;;;4736944;29;116056;-82
2022/12/27 05:55:36;;;;;;;5.78;1.92;;;4.80;71.60;;;;;;4737234;29;115185;-83
2022/12/27 05:58:03;;;;;;;5.28;2.22;;;4.80;71.70;;;;;;4736523;29;114757;-82
2022/12/27 06:00:30;;;;;;;3.17;1.83;;;4.80;71.70;;;;;;4738198;29;114334;-83
2022/12/27 06:02:58;;;;;;;4.05;1.80;;;4.80;71.50;;;;;;4750222;29;115794;-82
2022/12/27 06:05:25;;;;;;;3.75;1.80;;;4.80;71.20;;;;;;4735874;29;114619;-82
2022/12/27 06:07:52;;;;;;;4.25;1.83;;;4.70;71.00;;;;;;4736044;29;114834;-83
2022/12/27 06:10:19;;;;;;;4.22;1.77;;;4.70;71.20;;;;;;4737304;29;114702;-82
2022/12/27 06:12:47;;;;;;;5.05;1.73;;;4.60;71.30;;;;;;4750914;29;115634;-83
2022/12/27 06:15:14;;;;;;;4.28;1.63;;;4.60;71.40;;;;;;4735562;29;116356;-82
2022/12/27 06:17:42;;;;;;;2.75;1.20;;;4.60;71.40;;;;;;4737883;29;114329;-83
2022/12/27 06:20:10;;;;;;;4.25;1.77;;;4.60;71.30;;;;;;4737659;29;114382;-82
2022/12/27 06:22:37;;;;;;;5.78;2.10;;;4.60;71.20;;;;;;4736695;29;115013;-83
2022/12/27 06:25:05;;;;;;;2.88;1.48;;;4.60;71.20;;;;;;4750733;29;114820;-83
2022/12/27 06:27:36;;;;;;;3.42;1.88;;;4.60;71.00;;;;;;4736045;29;114286;-83
2022/12/27 06:30:06;;;;;;;4.80;1.95;;;4.60;71.10;;;;;;4737072;29;114664;-82
2022/12/27 06:32:34;;;;;;;6.80;3.90;;;4.60;71.20;;;;;;4735016;29;115183;-82
2022/12/27 06:35:01;;;;;;;4.88;1.98;;;4.60;71.30;;;;;;4736463;29;114734;-83
2022/12/27 06:37:29;;;;;;;5.18;1.83;;;4.60;71.20;;;;;;4737346;29;114500;-82
2022/12/27 06:39:57;;;;;;;6.20;2.90;;;4.60;71.10;;;;;;4735465;29;114565;-82
2022/12/27 06:42:24;;;;;;;3.63;1.80;;;4.60;71.20;;;;;;4734977;29;116189;-82
2022/12/27 06:44:51;;;;;;;3.83;1.70;;;4.70;71.00;;;;;;4736407;29;117047;-82
2022/12/27 06:47:18;;;;;;;4.70;1.67;;;4.60;70.60;;;;;;4736857;29;114409;-82
2022/12/27 06:49:45;;;;;;;5.10;2.38;;;4.60;70.70;;;;;;4750676;29;114507;-82
2022/12/27 06:52:13;;;;;;;5.55;2.20;;;4.60;70.70;;;;;;4730854;29;116245;-82
2022/12/27 06:54:43;;;;;;;4.35;2.25;;;4.60;71.00;;;;;;4732548;29;114686;-82
2022/12/27 06:57:10;;;;;;;4.82;1.80;;;4.60;71.00;;;;;;4735323;29;114640;-82
2022/12/27 06:59:38;;;;;;;3.95;2.03;;;4.60;70.80;;;;;;4735512;29;114556;-82
2022/12/27 07:02:05;;;;;;;5.20;2.30;;;4.50;70.90;;;;;;4735262;29;115109;-82
2022/12/27 07:04:33;;;;;;;6.38;3.00;;;4.60;70.90;;;;;;4735189;29;117465;-82
2022/12/27 07:07:00;;;;;;;7.03;2.97;;;4.50;70.80;;;;;;4735651;29;114457;-82
2022/12/27 07:09:27;;;;;;;11.15;2.95;;;4.50;71.00;;;;;;4735714;29;114936;-83
2022/12/27 07:11:54;;;;;;;5.82;2.72;;;4.60;71.10;;;;;;4749512;29;115171;-82
2022/12/27 07:14:21;;;;;;;6.97;2.47;;;4.60;71.00;;;;;;4739151;29;115892;-82
2022/12/27 07:16:49;;;;;;;7.82;2.90;;;4.60;71.10;;;;;;4753697;29;114722;-81
2022/12/27 07:19:16;;;;;;;5.78;2.83;;;4.60;71.00;;;;;;4739641;29;114366;-82
2022/12/27 07:21:43;;;;;;;6.53;2.80;;;4.60;70.90;;;;;;4722343;29;118296;-82
2022/12/27 07:24:11;;;;;;;6.93;2.55;;;4.60;70.70;;;;;;4738968;29;114794;-82
2022/12/27 07:26:38;;;;;;;6.10;2.80;;;4.70;70.70;;;;;;4752857;29;115090;-82
2022/12/27 07:29:06;;;;;;;5.68;2.78;;;4.70;70.70;;;;;;4737760;29;116590;-82
2022/12/27 07:31:33;;;;;;;6.03;3.83;;;4.70;70.70;;;;;;4721754;29;115204;-82
2022/12/27 07:34:01;;;;;;;5.85;3.17;;;4.70;70.90;;;;;;4738968;29;114849;-82
2022/12/27 07:36:35;;;;;;;6.13;3.05;;;4.70;70.80;;;;;;4721735;29;114690;-81
2022/12/27 07:39:03;;;;;;;8.30;3.50;;;4.70;70.80;;;;;;4723285;29;115461;-82
2022/12/27 07:41:30;;;;;;;6.97;2.80;;;4.70;70.90;;;;;;4737508;29;118635;-82
2022/12/27 07:44:00;;;;;;;8.68;3.55;;;4.80;70.90;;;;;;4737212;29;117626;-81
2022/12/27 07:46:27;;;;;;;9.25;3.15;;;4.80;70.60;;;;;;4738921;29;114738;-82
2022/12/27 07:48:56;;;;;;;7.60;3.08;;;4.80;70.60;;;;;;4752842;29;114471;-82
2022/12/27 07:51:25;;;;;;;11.00;3.05;;;4.80;70.20;;;;;;4722735;29;115095;-82
2022/12/27 07:53:53;;;;;;;10.43;3.10;;;4.80;70.10;;;;;;4751866;29;114798;-84
2022/12/27 07:56:22;;;;;;;8.30;3.25;;;4.90;70.00;;;;;;4753276;29;117599;-83
2022/12/27 07:58:54;;;;;;;8.82;2.80;;;4.90;69.80;;;;;;4752480;29;114365;-83
2022/12/27 08:01:22;;;;;;;9.35;3.10;;;4.90;69.80;;;;;;4737353;29;115425;-82
2022/12/27 08:03:50;;;;;;;9.55;3.33;;;5.00;69.60;;;;;;4752644;29;115105;-82
2022/12/27 08:06:32;;;;;;;9.25;3.80;;;5.00;69.30;;;;;;4737945;29;114603;-82
2022/12/27 08:09:03;;;;;;;14.23;5.80;;;5.00;69.10;;;;;;4752864;29;114667;-82
2022/12/27 08:11:30;;;;;;;15.10;5.43;;;5.00;69.10;;;;;;4736928;29;115888;-82
2022/12/27 08:13:57;;;;;;;12.50;5.68;;;5.00;69.10;;;;;;4722468;29;114736;-82
2022/12/27 08:16:25;;;;;;;14.60;5.70;;;5.00;69.20;;;;;;4738986;29;114426;-82
2022/12/27 08:18:52;;;;;;;14.75;5.53;;;5.00;69.30;;;;;;4737974;29;115657;-82
2022/12/27 08:21:19;;;;;;;17.33;5.50;;;5.10;69.30;;;;;;4737713;29;116246;-82
2022/12/27 08:23:46;;;;;;;11.10;5.43;;;5.00;69.00;;;;;;4751433;29;114710;-82
2022/12/27 08:26:14;;;;;;;9.02;5.28;;;5.10;69.30;;;;;;4737555;29;114429;-82
2022/12/27 08:28:41;;;;;;;10.20;5.22;;;5.10;69.20;;;;;;4722955;29;114649;-81
2022/12/27 08:31:10;;;;;;;10.68;5.53;;;5.10;69.30;;;;;;4737874;29;115037;-82
2022/12/27 08:33:38;;;;;;;14.27;6.30;;;5.10;69.20;;;;;;4751748;29;114781;-82
2022/12/27 08:36:06;;;;;;;13.38;5.47;;;5.10;69.10;;;;;;4736559;29;114692;-82
2022/12/27 08:38:54;;;;;;;11.70;5.75;;;5.10;69.20;;;;;;4739828;29;114416;-83
2022/12/27 08:41:22;;;;;;;11.70;5.53;;;5.20;69.30;;;;;;4736711;29;116021;-82
2022/12/27 08:43:49;;;;;;;10.88;5.60;;;5.10;69.00;;;;;;4738137;29;115210;-82
2022/12/27 08:46:18;;;;;;;9.50;5.00;;;5.20;69.20;;;;;;4737673;29;114640;-82
2022/12/27 08:48:49;;;;;;;10.55;5.45;;;5.20;69.10;;;;;;4739065;29;115501;-81
2022/12/27 08:51:16;;;;;;;14.25;6.15;;;5.20;68.90;;;;;;4738058;29;115520;-81
2022/12/27 08:53:57;;;;;;;10.98;5.53;;;5.20;69.00;;;;;;4750774;29;114848;-82
2022/12/27 08:56:24;;;;;;;12.30;5.95;;;5.20;68.80;;;;;;4752886;29;114876;-82
2022/12/27 08:58:51;;;;;;;12.07;5.50;;;5.20;68.80;;;;;;4739035;29;114552;-82
2022/12/27 09:01:19;;;;;;;11.20;5.80;;;5.20;68.80;;;;;;4737644;29;115208;-82
2022/12/27 09:03:46;;;;;;;13.13;5.53;;;5.20;68.90;;;;;;4736959;29;114634;-82
2022/12/27 09:06:16;;;;;;;9.88;5.75;;;5.20;68.80;;;;;;4737386;29;114594;-82
2022/12/27 09:08:44;;;;;;;12.38;5.53;;;5.30;69.10;;;;;;4738659;29;114615;-83
2022/12/27 09:11:18;;;;;;;9.27;4.72;;;5.30;69.00;;;;;;4737809;29;115088;-83
2022/12/27 09:13:45;;;;;;;11.43;4.73;;;5.30;69.00;;;;;;4736723;29;118182;-83
2022/12/27 09:16:15;;;;;;;11.43;5.35;;;5.30;68.60;;;;;;4738912;29;114534;-82
2022/12/27 09:18:43;;;;;;;11.35;4.70;;;5.40;68.40;;;;;;4722034;29;114823;-82
2022/12/27 09:21:12;;;;;;;12.82;5.40;;;5.40;68.50;;;;;;4736811;29;115210;-82
2022/12/27 09:23:40;;;;;;;12.98;5.55;;;5.40;68.50;;;;;;4736218;29;115135;-82
2022/12/27 09:26:12;;;;;;;11.52;5.63;;;5.50;68.30;;;;;;4736277;29;114693;-82
2022/12/27 09:28:39;;;;;;;10.65;5.00;;;5.40;68.30;;;;;;4748642;29;117793;-82
2022/12/27 09:31:08;;;;;;;11.02;4.85;;;5.40;68.10;;;;;;4721534;29;117480;-83
2022/12/27 09:33:35;;;;;;;7.50;3.92;;;5.50;68.00;;;;;;4735074;29;114780;-83
2022/12/27 09:36:07;;;;;;;10.57;4.10;;;5.40;68.00;;;;;;4738063;29;114653;-83
2022/12/27 09:38:35;;;;;;;10.18;4.97;;;5.50;67.90;;;;;;4738012;29;114739;-82
2022/12/27 09:41:05;;;;;;;7.45;3.90;;;5.40;68.00;;;;;;4749304;29;115484;-82
2022/12/27 09:43:57;;;;;;;7.43;3.13;;;5.50;67.80;;;;;;4748428;29;114778;-83
2022/12/27 09:46:47;;;;;;;6.97;3.47;;;5.50;67.60;;;;;;4749014;29;117225;-83
2022/12/27 09:49:30;;;;;;;11.75;4.03;;;5.40;67.60;;;;;;4722039;29;114661;-83
2022/12/27 09:52:09;;;;;;;9.02;3.78;;;5.50;67.70;;;;;;4706271;29;115264;-82
2022/12/27 09:54:48;;;;;;;7.65;3.30;;;5.40;67.60;;;;;;4705304;29;117351;-83
2022/12/27 09:57:25;;;;;;;8.52;3.97;;;5.50;67.70;;;;;;4736874;29;114536;-83
2022/12/27 09:59:57;;;;;;;7.03;3.83;;;5.50;67.90;;;;;;4735419;29;114959;-82
2022/12/27 10:02:26;;;;;;;11.55;4.45;;;5.60;67.70;;;;;;4720484;29;115182;-82
2022/12/27 10:04:55;;;;;;;9.95;4.60;;;5.70;67.70;;;;;;4755876;29;114175;-82
2022/12/27 10:07:52;;;;;;;10.57;4.50;;;5.70;67.50;;;;;;4752205;29;114559;-82
2022/12/27 10:11:04;;;;;;;9.77;4.70;;;5.70;67.40;;;;;;4738284;29;114409;-82
2022/12/27 10:13:51;;;;;;;7.75;4.38;;;5.80;67.50;;;;;;4719858;29;119996;-88
2022/12/27 10:16:39;;;;;;;7.68;4.65;;;5.90;67.30;;;;;;4688349;29;114735;-81
2022/12/27 10:19:30;;;;;;;7.57;4.22;;;5.90;67.00;;;;;;4735458;29;114682;-82
2022/12/27 10:22:16;;;;;;;6.82;4.18;;;6.00;67.00;;;;;;4734060;29;114505;-83
2022/12/27 10:24:56;;;;;;;7.57;3.72;;;6.10;66.40;;;;;;4735802;29;115168;-82
2022/12/27 10:27:40;;;;;;;8.27;4.25;;;6.10;65.90;;;;;;4746568;29;114765;-83
2022/12/27 10:30:23;;;;;;;7.55;3.60;;;6.20;65.60;;;;;;4747795;29;114896;-83
2022/12/27 10:32:53;;;;;;;9.45;3.38;;;6.20;65.10;;;;;;4736990;29;114404;-83
2022/12/27 10:35:35;;;;;;;6.93;3.20;;;6.20;64.90;;;;;;4746910;29;116439;-82
2022/12/27 10:38:20;;;;;;;9.05;3.47;;;6.10;64.40;;;;;;4718697;29;116531;-82
2022/12/27 10:44:14;;;;;;;7.50;3.03;;;6.10;63.80;;;;;;4696525;29;114931;-83
2022/12/27 10:47:09;;;;;;;8.43;2.95;;;6.00;64.20;;;;;;4685047;29;115376;-82
2022/12/27 10:49:37;;;;;;;7.47;3.22;;;6.00;63.90;;;;;;4704537;29;114722;-83
2022/12/27 10:52:23;;;;;;;7.43;2.70;;;6.10;63.30;;;;;;4691000;29;114310;-82
2022/12/27 10:55:39;;;;;;;7.28;2.80;;;6.10;62.90;;;;;;4677186;29;114545;-83
2022/12/27 10:58:48;;;;;;;7.65;3.20;;;6.10;62.70;;;;;;4689423;29;118225;-84
2022/12/27 11:01:37;;;;;;;6.20;2.45;;;6.20;62.60;;;;;;4639879;30;114981;-82
2022/12/27 11:04:34;;;;;;;5.82;2.80;;;6.10;62.20;;;;;;4633946;30;115042;-83
2022/12/27 11:07:01;;;;;;;7.45;3.15;;;6.20;62.10;;;;;;4652945;30;114713;-82
2022/12/27 11:09:40;;;;;;;;;;;6.20;61.90;;;;;;4651861;30;115561;-81
2022/12/27 11:12:35;;;;;;;9.02;2.40;;;6.20;63.10;;;;;;4681302;29;114880;-83
2022/12/27 11:15:18;;;;;;;5.47;2.13;;;6.20;61.60;;;;;;4677777;29;114714;-82
2022/12/27 11:18:20;;;;;;;6.40;2.60;;;6.20;60.90;;;;;;4722814;29;114844;-82
2022/12/27 11:20:55;;;;;;;4.63;2.10;;;6.10;60.90;;;;;;4695255;29;115109;-82
2022/12/27 11:23:24;;;;;;;6.68;2.30;;;6.20;60.50;;;;;;4677707;29;116581;-82
2022/12/27 11:26:07;;;;;;;5.55;2.53;;;6.20;60.30;;;;;;4676269;29;114643;-83
2022/12/27 11:28:57;;;;;;;7.80;2.50;;;6.30;59.50;;;;;;4664200;29;114461;-83
2022/12/27 11:31:47;;;;;;;4.28;2.10;;;6.30;59.70;;;;;;4676365;29;116530;-83
2022/12/27 11:34:31;;;;;;;5.13;2.35;;;6.30;58.70;;;;;;4654906;30;114934;-83
2022/12/27 11:37:18;;;;;;;4.32;2.08;;;6.40;58.90;;;;;;4640897;30;114774;-83
2022/12/27 11:40:10;;;;;;;5.57;1.77;;;6.40;58.50;;;;;;4641571;30;114894;-83
2022/12/27 11:42:44;;;;;;;4.90;1.80;;;6.40;58.20;;;;;;4647364;30;115488;-82
2022/12/27 11:45:47;;;;;;;7.40;2.08;;;6.30;56.30;;;;;;4625995;30;114820;-81
2022/12/27 11:48:39;;;;;;;4.18;1.73;;;6.30;56.20;;;;;;4657603;30;115046;-82
2022/12/27 11:51:40;;;;;;;5.20;2.00;;;6.20;56.10;;;;;;4621805;30;114660;-83
2022/12/27 11:55:00;;;;;;;4.47;2.00;;;6.20;56.40;;;;;;4633783;30;115214;-83
2022/12/27 11:58:08;;;;;;;5.72;2.20;;;6.20;56.70;;;;;;4643164;30;118337;-82
2022/12/27 12:01:35;;;;;;;8.40;2.30;;;6.20;56.50;;;;;;4648161;30;114651;-81
2022/12/27 12:04:24;;;;;;;5.07;2.20;;;6.10;56.60;;;;;;4652560;29;114701;-82
2022/12/27 12:07:47;;;;;;;4.80;2.15;;;6.00;57.20;;;;;;4686262;29;117275;-82
2022/12/27 12:10:32;;;;;;;4.75;2.10;;;6.10;56.90;;;;;;4688320;29;114906;-82
2022/12/27 12:13:27;;;;;;;5.20;2.30;;;6.10;56.70;;;;;;4658626;29;114615;-82
2022/12/27 12:16:10;;;;;;;6.10;2.45;;;6.10;57.10;;;;;;4671604;29;114944;-82
2022/12/27 12:18:59;;;;;;;7.63;2.40;;;6.10;56.40;;;;;;4700734;29;115153;-83
2022/12/27 12:22:20;;;;;;;6.05;3.33;;;6.10;56.30;;;;;;4700007;29;115279;-83
2022/12/27 12:25:42;;;;;;;5.85;2.78;;;6.00;57.10;;;;;;4686426;29;115781;-82
2022/12/27 12:28:30;;;;;;;5.13;2.50;;;6.00;57.10;;;;;;4703240;29;114567;-83
2022/12/27 12:31:54;;;;;;;4.65;2.28;;;6.00;57.30;;;;;;4738470;29;115314;-82
2022/12/27 12:35:11;;;;;;;4.78;2.20;;;6.00;56.90;;;;;;4748649;29;114822;-82
2022/12/27 12:38:15;;;;;;;5.15;2.17;;;6.00;56.90;;;;;;4750407;29;115946;-82
2022/12/27 12:41:23;;;;;;;7.87;2.23;;;5.90;56.40;;;;;;4748031;29;114425;-83
2022/12/27 12:44:33;;;;;;;5.45;2.30;;;5.90;56.60;;;;;;4749771;29;115298;-82
2022/12/27 12:47:37;;;;;;;5.53;2.20;;;5.90;56.40;;;;;;4736411;29;115643;-82
2022/12/27 12:50:35;;;;;;;5.43;2.28;;;5.80;56.30;;;;;;4737194;29;114505;-83
2022/12/27 12:53:31;;;;;;;4.07;1.77;;;5.80;56.00;;;;;;4736933;29;114399;-82
2022/12/27 12:56:58;;;;;;;7.70;2.15;;;5.70;56.00;;;;;;4746443;29;115348;-83
2022/12/27 12:59:35;;;;;;;5.15;1.60;;;5.70;55.80;;;;;;4751617;29;114986;-82
2022/12/27 13:02:42;;;;;;;5.80;2.10;;;5.60;56.00;;;;;;4745386;29;114409;-81
2022/12/27 13:05:39;;;;;;;4.17;1.97;;;5.60;56.30;;;;;;4761340;29;114847;-81
2022/12/27 13:08:30;;;;;;;3.28;1.50;;;5.60;56.10;;;;;;4752296;29;114682;-82
2022/12/27 13:11:20;;;;;;;6.70;1.70;;;5.60;55.40;;;;;;4750331;29;114712;-82
2022/12/27 13:14:30;;;;;;;4.60;1.80;;;5.70;55.20;;;;;;4750712;29;114662;-84
2022/12/27 13:17:14;;;;;;;4.30;1.75;;;5.60;55.20;;;;;;4722598;29;116266;-83
2022/12/27 13:20:31;;;;;;;6.28;2.35;;;5.60;55.10;;;;;;4720993;29;115285;-83
2022/12/27 13:23:38;;;;;;;5.88;2.30;;;5.60;55.30;;;;;;4736714;29;116767;-82
2022/12/27 13:26:31;;;;;;;7.20;2.15;;;5.50;55.70;;;;;;4737501;29;114594;-83
2022/12/27 13:29:45;;;;;;;5.00;2.03;;;5.50;55.70;;;;;;4736364;29;114706;-82
2022/12/27 13:32:33;;;;;;;7.03;1.90;;;5.50;55.80;;;;;;4749191;29;115753;-82
2022/12/27 13:35:50;;;;;;;6.38;2.47;;;5.40;56.10;;;;;;4735837;29;118060;-83
2022/12/27 13:38:35;;;;;;;6.25;2.15;;;5.40;55.30;;;;;;4737570;29;114554;-82
2022/12/27 13:41:43;;;;;;;4.88;2.20;;;5.30;55.80;;;;;;4736579;29;114551;-82
2022/12/27 13:44:19;;;;;;;5.13;2.13;;;5.30;55.70;;;;;;4735458;29;115204;-82
2022/12/27 13:47:26;;;;;;;5.20;2.25;;;5.40;55.90;;;;;;4750783;29;114909;-82
2022/12/27 13:50:23;;;;;;;5.05;2.13;;;5.40;55.90;;;;;;4736529;29;114771;-82
2022/12/27 13:53:02;;;;;;;5.38;2.30;;;5.40;55.80;;;;;;4706584;29;119106;-81
2022/12/27 13:55:51;;;;;;;6.72;2.40;;;5.40;56.20;;;;;;4736613;29;117043;-82
2022/12/27 13:59:02;;;;;;;5.47;2.50;;;5.40;55.80;;;;;;4720993;29;118003;-81
2022/12/27 14:01:29;;;;;;;6.15;2.72;;;5.40;55.80;;;;;;4751121;29;114715;-83
2022/12/27 14:04:53;;;;;;;5.18;2.30;;;5.30;56.20;;;;;;4738177;29;114665;-84
2022/12/27 14:07:53;;;;;;;6.45;2.80;;;5.30;56.00;;;;;;4698912;29;115107;-83
2022/12/27 14:10:39;;;;;;;;;;;5.20;55.80;;;;;;4736922;29;114915;-82
2022/12/27 14:13:08;;;;;;;;;;;5.20;56.90;;;;;;4737183;29;116063;-84
2022/12/27 14:16:12;;;;;;;6.85;2.58;;;5.00;57.40;;;;;;4736211;29;116448;-83
2022/12/27 14:19:18;;;;;;;6.47;2.20;;;5.00;56.60;;;;;;4735122;29;115090;-83
2022/12/27 14:22:42;;;;;;;6.15;2.95;;;5.00;56.50;;;;;;4733673;29;115592;-82
2022/12/27 14:26:06;;;;;;;5.97;2.40;;;5.00;57.00;;;;;;4717043;29;114513;-83
2022/12/27 14:29:20;;;;;;;4.57;2.10;;;4.90;56.50;;;;;;4696805;29;114550;-83
2022/12/27 14:32:33;;;;;;;4.95;2.47;;;4.90;56.40;;;;;;4722750;29;118705;-83
2022/12/27 14:35:18;;;;;;;4.90;2.25;;;4.90;56.80;;;;;;4683430;29;115280;-82
2022/12/27 14:38:21;;;;;;;5.80;2.60;;;4.80;56.50;;;;;;4735771;29;114673;-83
2022/12/27 14:41:39;;;;;;;6.60;2.38;;;4.80;56.50;;;;;;4734948;29;114801;-83
2022/12/27 14:45:55;;;;;;;5.07;2.20;;;4.80;56.20;;;;;;4696179;29;115570;-83
2022/12/27 14:49:00;;;;;;;4.78;2.15;;;4.60;56.60;;;;;;4734147;29;115213;-83
2022/12/27 14:51:52;;;;;;;8.40;3.20;;;4.50;56.80;;;;;;4735326;29;114472;-83
2022/12/27 14:55:17;;;;;;;6.43;3.67;;;4.60;56.70;;;;;;4736231;29;114632;-83
2022/12/27 14:58:10;;;;;;;7.10;2.45;;;4.50;56.80;;;;;;4735235;29;115755;-82
2022/12/27 15:01:08;;;;;;;6.28;2.33;;;4.50;56.60;;;;;;4733139;29;114872;-82
2022/12/27 15:04:01;;;;;;;4.97;2.13;;;4.40;56.70;;;;;;4747375;29;114808;-82
2022/12/27 15:07:04;;;;;;;6.15;2.63;;;4.40;57.00;;;;;;4734953;29;114704;-82
2022/12/27 15:10:01;;;;;;;7.68;3.47;;;4.30;57.10;;;;;;4719301;29;120814;-83
2022/12/27 15:12:40;;;;;;;5.82;2.90;;;4.30;57.10;;;;;;4734186;29;114900;-83
2022/12/27 15:15:28;;;;;;;4.13;2.13;;;4.30;57.30;;;;;;4749351;29;114735;-82
2022/12/27 15:18:53;;;;;;;4.63;2.72;;;4.30;57.20;;;;;;4736038;29;114437;-82
2022/12/27 15:21:27;;;;;;;58.27;26.40;;;4.20;57.00;;;;;;4697597;29;115930;-82
2022/12/27 15:24:06;;;;;;;13.32;8.00;;;4.10;57.50;;;;;;4729685;29;114839;-83
2022/12/27 15:26:49;;;;;;;11.25;6.03;;;4.20;57.30;;;;;;4721042;29;114652;-83
2022/12/27 15:29:34;;;;;;;8.38;4.18;;;4.20;57.40;;;;;;4718996;29;114622;-82
2022/12/27 15:32:44;;;;;;;5.53;2.90;;;4.20;57.40;;;;;;4704583;29;116246;-82
2022/12/27 15:35:46;;;;;;;4.97;3.25;;;4.10;57.20;;;;;;4737540;29;115316;-82
2022/12/27 15:38:33;;;;;;;5.07;2.65;;;4.10;57.30;;;;;;4738664;29;114691;-82